createdAt,value
2019-04-16T00:02:53.498Z,32.73
2019-04-16T00:06:05.062Z,35.77
2019-04-16T00:09:22.992Z,44.00
2019-04-16T00:12:49.340Z,42.77
2019-04-16T00:15:57.552Z,35.60
2019-04-16T00:19:06.525Z,43.33
2019-04-16T00:22:28.040Z,44.03
2019-04-16T00:25:35.534Z,41.73
2019-04-16T00:28:43.066Z,46.20
2019-04-16T00:31:57.221Z,36.40
2019-04-16T00:35:04.938Z,37.87
2019-04-16T00:38:12.623Z,38.60
2019-04-16T00:41:20.211Z,48.87
2019-04-16T00:44:27.782Z,36.23
2019-04-16T00:47:35.414Z,36.17
2019-04-16T00:50:43.000Z,44.60
2019-04-16T00:53:50.525Z,39.90
2019-04-16T00:56:58.088Z,37.57
2019-04-16T01:00:07.320Z,33.10
2019-04-16T01:03:15.756Z,41.63
2019-04-16T01:06:23.274Z,35.00
2019-04-16T01:09:30.815Z,34.40
2019-04-16T01:12:38.391Z,32.70
2019-04-16T01:15:46.979Z,37.00
2019-04-16T01:18:55.862Z,35.93
2019-04-16T01:22:03.355Z,40.03
2019-04-16T01:25:11.004Z,42.40
2019-04-16T01:28:21.439Z,41.50
2019-04-16T01:31:50.774Z,41.67
2019-04-16T01:35:11.195Z,30.03
2019-04-16T01:38:36.035Z,36.23
2019-04-16T01:41:43.538Z,41.53
2019-04-16T01:44:51.037Z,36.80
2019-04-16T01:47:58.512Z,36.60
2019-04-16T01:51:06.075Z,34.60
2019-04-16T01:54:13.642Z,36.43
2019-04-16T01:57:21.078Z,38.07
2019-04-16T02:00:28.542Z,40.10
2019-04-16T02:03:35.966Z,39.63
2019-04-16T02:06:43.443Z,42.03
2019-04-16T02:09:52.932Z,37.67
2019-04-16T02:13:00.738Z,33.70
2019-04-16T02:16:09.608Z,43.47
2019-04-16T02:19:18.804Z,45.23
2019-04-16T02:22:27.824Z,38.47
2019-04-16T02:25:35.630Z,41.10
2019-04-16T02:28:43.277Z,36.47
2019-04-16T02:31:51.498Z,41.00
2019-04-16T02:35:00.657Z,38.20
2019-04-16T02:38:12.218Z,35.80
2019-04-16T02:41:17.452Z,34.07
2019-04-16T02:44:24.984Z,37.57
2019-04-16T02:47:32.438Z,45.57
2019-04-16T02:50:46.096Z,37.93
2019-04-16T02:54:15.400Z,36.50
2019-04-16T02:57:59.453Z,34.20
2019-04-16T03:01:21.942Z,33.70
2019-04-16T03:04:34.650Z,36.70
2019-04-16T03:07:42.210Z,33.80
2019-04-16T03:10:50.484Z,41.67
2019-04-16T03:13:59.479Z,34.27
2019-04-16T03:17:25.823Z,38.37
2019-04-16T03:20:33.288Z,35.27
2019-04-16T03:23:40.978Z,38.40
2019-04-16T03:26:50.539Z,39.73
2019-04-16T03:30:03.013Z,33.37
2019-04-16T03:33:13.312Z,34.93
2019-04-16T03:36:18.308Z,28.20
2019-04-16T03:39:25.919Z,36.90
2019-04-16T03:42:33.520Z,30.40
2019-04-16T03:45:41.186Z,23.07
2019-04-16T03:48:48.753Z,27.47
2019-04-16T03:51:56.516Z,31.60
2019-04-16T03:55:04.025Z,34.47
2019-04-16T03:58:11.612Z,32.87
2019-04-16T04:01:19.138Z,27.00
2019-04-16T04:04:29.214Z,29.00
2019-04-16T04:07:35.712Z,35.53
2019-04-16T04:10:43.264Z,32.93
2019-04-16T04:13:50.963Z,31.53
2019-04-16T04:16:58.524Z,37.27
2019-04-16T04:20:06.896Z,33.80
2019-04-16T04:23:14.686Z,38.73
2019-04-16T04:26:22.216Z,39.70
2019-04-16T04:29:30.303Z,33.53
2019-04-16T04:32:37.770Z,29.63
2019-04-16T04:35:45.263Z,33.57
2019-04-16T04:38:52.768Z,35.90
2019-04-16T04:42:00.270Z,38.00
2019-04-16T04:45:08.940Z,34.67
2019-04-16T04:48:17.031Z,36.70
2019-04-16T04:51:24.547Z,33.07
2019-04-16T04:54:32.090Z,30.67
2019-04-16T04:57:39.536Z,31.67
2019-04-16T05:00:47.017Z,31.43
2019-04-16T05:04:25.805Z,32.57
2019-04-16T05:07:33.242Z,36.03
2019-04-16T05:10:43.237Z,37.40
2019-04-16T05:13:49.928Z,29.70
2019-04-16T05:16:57.384Z,30.77
2019-04-16T05:20:05.193Z,32.33
2019-04-16T05:23:12.660Z,31.43
2019-04-16T05:26:20.132Z,31.20
2019-04-16T05:29:27.679Z,34.57
2019-04-16T05:32:35.148Z,26.10
2019-04-16T05:35:42.787Z,26.07
2019-04-16T05:38:50.243Z,28.60
2019-04-16T05:41:57.860Z,31.40
2019-04-16T05:45:06.744Z,27.80
2019-04-16T05:48:15.443Z,22.20
2019-04-16T05:51:22.958Z,29.20
2019-04-16T05:54:45.281Z,30.53
2019-04-16T05:57:57.868Z,23.47
2019-04-16T06:01:28.350Z,30.00
2019-04-16T06:04:35.808Z,23.83
2019-04-16T06:07:43.297Z,25.07
2019-04-16T06:10:51.269Z,30.13
2019-04-16T06:14:21.017Z,29.67
2019-04-16T06:17:50.092Z,28.83
2019-04-16T06:21:16.733Z,29.10
2019-04-16T06:24:40.117Z,31.30
2019-04-16T06:28:06.676Z,25.17
2019-04-16T06:31:36.211Z,29.90
2019-04-16T06:35:03.473Z,27.50
2019-04-16T06:38:15.783Z,23.73
2019-04-16T06:41:58.617Z,22.43
2019-04-16T06:45:23.797Z,19.70
2019-04-16T06:48:35.334Z,21.10
2019-04-16T06:52:04.754Z,19.30
2019-04-16T06:55:19.742Z,23.43
2019-04-16T06:58:51.203Z,19.43
2019-04-16T07:02:24.003Z,19.33
2019-04-16T07:05:38.144Z,17.90
2019-04-16T07:09:13.593Z,15.30
2019-04-16T07:12:22.603Z,18.00
2019-04-16T07:15:30.190Z,21.00
2019-04-16T07:18:39.239Z,15.03
2019-04-16T07:21:49.615Z,16.00
2019-04-16T07:25:03.832Z,15.97
2019-04-16T07:28:18.173Z,18.23
2019-04-16T07:31:36.274Z,11.23
2019-04-16T07:34:50.846Z,11.77
2019-04-16T07:38:11.433Z,8.60
2019-04-16T07:41:47.913Z,14.47
2019-04-16T07:45:14.213Z,16.20
2019-04-16T07:48:29.034Z,14.87
2019-04-16T07:52:11.749Z,13.47
2019-04-16T07:55:36.766Z,17.20
2019-04-16T07:58:44.249Z,14.53
2019-04-16T08:01:53.392Z,16.13
2019-04-16T08:05:00.874Z,13.00
2019-04-16T08:08:09.552Z,11.73
2019-04-16T08:11:17.050Z,12.50
2019-04-16T08:14:24.635Z,11.00
2019-04-16T08:17:32.234Z,11.10
2019-04-16T08:20:39.846Z,15.53
2019-04-16T08:24:06.108Z,11.63
2019-04-16T08:27:17.819Z,14.63
2019-04-16T08:30:24.341Z,9.27
2019-04-16T08:33:31.774Z,10.87
2019-04-16T08:36:40.897Z,10.47
2019-04-16T08:39:49.816Z,18.13
2019-04-16T08:42:58.290Z,13.80
2019-04-16T08:46:10.265Z,10.20
2019-04-16T08:49:16.229Z,13.70
2019-04-16T08:52:23.723Z,10.63
2019-04-16T08:55:31.140Z,13.97
2019-04-16T08:58:39.596Z,10.10
2019-04-16T09:01:47.295Z,9.93
2019-04-16T09:04:54.790Z,9.57
2019-04-16T09:08:21.765Z,11.03
2019-04-16T09:11:28.510Z,8.90
2019-04-16T09:14:40.427Z,10.87
2019-04-16T09:17:50.887Z,11.37
2019-04-16T09:20:58.432Z,8.10
2019-04-16T09:24:28.000Z,9.37
2019-04-16T09:27:38.034Z,12.93
2019-04-16T09:31:03.065Z,10.10
2019-04-16T09:34:31.175Z,8.40
2019-04-16T09:37:47.544Z,12.07
2019-04-16T09:41:29.114Z,9.17
2019-04-16T09:44:36.713Z,9.70
2019-04-16T09:47:44.614Z,10.80
2019-04-16T09:50:52.183Z,9.90
2019-04-16T09:54:01.081Z,10.30
2019-04-16T09:57:08.537Z,9.70
2019-04-16T10:00:23.114Z,10.10
2019-04-16T10:03:36.156Z,10.80
2019-04-16T10:06:43.657Z,10.23
2019-04-16T10:09:54.382Z,13.57
2019-04-16T10:13:03.058Z,9.17
2019-04-16T10:16:13.489Z,10.70
2019-04-16T10:19:21.630Z,9.50
2019-04-16T10:22:28.728Z,10.97
2019-04-16T10:25:36.562Z,11.53
2019-04-16T10:28:44.544Z,9.63
2019-04-16T10:31:52.579Z,9.83
2019-04-16T10:35:00.108Z,9.20
2019-04-16T10:38:19.454Z,8.83
2019-04-16T10:41:35.270Z,9.20
2019-04-16T10:45:17.393Z,7.27
2019-04-16T10:48:42.385Z,9.30
2019-04-16T10:52:08.371Z,11.57
2019-04-16T10:55:37.674Z,8.43
2019-04-16T10:58:56.637Z,6.70
2019-04-16T11:02:22.066Z,11.60
2019-04-16T11:05:45.717Z,7.93
2019-04-16T11:08:53.377Z,9.97
2019-04-16T11:12:04.767Z,9.30
2019-04-16T11:15:12.652Z,8.67
2019-04-16T11:18:20.195Z,13.47
2019-04-16T11:21:28.494Z,11.60
2019-04-16T11:24:36.017Z,8.17
2019-04-16T11:27:43.601Z,12.27
2019-04-16T11:30:54.762Z,6.30
2019-04-16T11:34:03.795Z,9.37
2019-04-16T11:37:11.245Z,8.63
2019-04-16T11:40:18.858Z,10.90
2019-04-16T11:43:26.300Z,9.27
2019-04-16T11:46:33.849Z,10.33
2019-04-16T11:49:41.367Z,10.63
2019-04-16T11:52:48.868Z,8.83
2019-04-16T11:55:56.324Z,8.93
2019-04-16T11:59:03.842Z,9.20
2019-04-16T12:02:28.340Z,6.50
2019-04-16T12:05:48.613Z,9.73
2019-04-16T12:09:21.120Z,7.57
2019-04-16T12:12:50.187Z,7.00
2019-04-16T12:16:07.090Z,8.03
2019-04-16T12:19:32.135Z,6.83
2019-04-16T12:22:49.864Z,8.47
2019-04-16T12:26:16.261Z,11.13
2019-04-16T12:29:38.559Z,11.00
2019-04-16T12:33:07.827Z,6.90
2019-04-16T12:36:25.020Z,7.00
2019-04-16T12:39:51.397Z,5.83
2019-04-16T12:43:15.768Z,9.73
2019-04-16T12:46:44.626Z,8.53
2019-04-16T12:49:57.437Z,8.33
2019-04-16T12:53:20.116Z,9.13
2019-04-16T12:57:01.798Z,7.90
2019-04-16T13:00:17.898Z,5.90
2019-04-16T13:03:46.425Z,10.50
2019-04-16T13:06:59.114Z,8.73
2019-04-16T13:10:16.493Z,7.00
2019-04-16T13:14:01.645Z,6.13
2019-04-16T13:17:47.929Z,11.30
2019-04-16T13:21:27.221Z,5.20
2019-04-16T13:24:39.545Z,11.03
2019-04-16T13:27:47.833Z,8.83
2019-04-16T13:30:56.317Z,7.80
2019-04-16T13:34:03.982Z,11.63
2019-04-16T13:37:11.541Z,8.20
2019-04-16T13:40:19.836Z,5.00
2019-04-16T13:43:33.745Z,6.07
2019-04-16T13:46:42.729Z,7.87
2019-04-16T13:50:02.590Z,9.93
2019-04-16T13:53:17.430Z,6.50
2019-04-16T13:56:30.976Z,6.30
2019-04-16T14:00:02.936Z,7.50
2019-04-16T14:03:10.587Z,7.77
2019-04-16T14:06:18.441Z,7.07
2019-04-16T14:09:25.949Z,7.60
2019-04-16T14:12:41.878Z,8.20
2019-04-16T14:15:44.911Z,8.77
2019-04-16T14:18:52.633Z,7.60
2019-04-16T14:22:00.132Z,8.53
2019-04-16T14:25:09.110Z,9.43
2019-04-16T14:28:18.599Z,8.17
2019-04-16T14:31:27.915Z,7.90
2019-04-16T14:35:06.146Z,8.27
2019-04-16T14:38:16.336Z,9.60
2019-04-16T14:41:23.837Z,9.63
2019-04-16T14:44:36.383Z,10.80
2019-04-16T14:47:43.995Z,11.83
2019-04-16T14:50:51.441Z,8.93
2019-04-16T14:54:20.829Z,18.70
2019-04-16T14:57:28.411Z,9.00
2019-04-16T15:01:01.036Z,11.63
2019-04-16T15:04:36.916Z,11.63
2019-04-16T15:08:06.412Z,9.53
2019-04-16T15:11:35.863Z,9.03
2019-04-16T15:14:49.336Z,9.50
2019-04-16T15:18:10.232Z,10.90
2019-04-16T15:21:43.908Z,11.50
2019-04-16T15:25:10.619Z,8.23
2019-04-16T15:28:23.821Z,9.83
2019-04-16T15:31:48.723Z,8.60
2019-04-16T15:34:56.935Z,8.97
2019-04-16T15:38:18.584Z,7.97
2019-04-16T15:41:41.695Z,14.20
2019-04-16T15:45:00.703Z,11.63
2019-04-16T15:48:27.061Z,12.60
2019-04-16T15:51:50.562Z,6.97
2019-04-16T15:55:06.099Z,14.40
2019-04-16T15:58:38.640Z,8.63
2019-04-16T16:02:08.316Z,11.40
2019-04-16T16:05:47.059Z,10.07
2019-04-16T16:09:16.096Z,13.07
2019-04-16T16:12:26.328Z,12.00
2019-04-16T16:15:33.834Z,9.40
2019-04-16T16:18:41.427Z,9.27
2019-04-16T16:21:48.922Z,9.77
2019-04-16T16:24:58.620Z,9.83
2019-04-16T16:28:06.450Z,11.67
2019-04-16T16:31:13.982Z,11.70
2019-04-16T16:34:21.597Z,11.63
2019-04-16T16:37:29.093Z,14.93
2019-04-16T16:40:38.354Z,15.10
2019-04-16T16:43:46.150Z,11.43
2019-04-16T16:47:15.550Z,12.00
2019-04-16T16:50:23.071Z,17.90
2019-04-16T16:53:40.201Z,14.20
2019-04-16T16:57:02.097Z,10.30
2019-04-16T17:00:25.038Z,11.60
2019-04-16T17:03:47.165Z,18.77
2019-04-16T17:06:54.646Z,25.83
2019-04-16T17:10:02.153Z,16.90
2019-04-16T17:13:13.102Z,13.40
2019-04-16T17:16:19.048Z,9.07
2019-04-16T17:19:27.566Z,18.73
2019-04-16T17:22:36.129Z,17.77
2019-04-16T17:25:43.619Z,14.33
2019-04-16T17:28:51.421Z,13.10
2019-04-16T17:31:59.347Z,24.43
2019-04-16T17:35:14.202Z,21.50
2019-04-16T17:38:17.448Z,23.50
2019-04-16T17:41:31.752Z,18.90
2019-04-16T17:44:57.075Z,19.77
2019-04-16T17:48:31.141Z,25.93
2019-04-16T17:51:47.357Z,25.47
2019-04-16T17:55:06.980Z,44.17
2019-04-16T17:58:20.698Z,50.70
2019-04-16T18:02:02.535Z,69.53
2019-04-16T18:05:23.377Z,29.07
2019-04-16T18:08:57.994Z,38.73
2019-04-16T18:12:26.550Z,35.67
2019-04-16T18:15:45.451Z,35.10
2019-04-16T18:19:05.500Z,21.60
2019-04-16T18:22:27.768Z,20.90
2019-04-16T18:25:56.578Z,16.63
2019-04-16T18:29:16.612Z,24.23
2019-04-16T18:32:58.521Z,18.70
2019-04-16T18:36:30.883Z,17.17
2019-04-16T18:39:44.735Z,22.00
2019-04-16T18:43:11.229Z,24.23
2019-04-16T18:46:29.634Z,26.13
2019-04-16T18:49:36.274Z,27.20
2019-04-16T18:52:43.821Z,37.70
2019-04-16T18:55:52.829Z,31.77
2019-04-16T18:59:01.369Z,32.33
2019-04-16T19:02:09.790Z,36.20
2019-04-16T19:05:18.422Z,32.80
2019-04-16T19:08:40.458Z,37.17
2019-04-16T19:11:37.343Z,40.03
2019-04-16T19:14:45.254Z,34.80
2019-04-16T19:17:53.397Z,34.70
2019-04-16T19:21:01.010Z,39.90
2019-04-16T19:24:09.883Z,34.87
2019-04-16T19:27:19.216Z,39.30
2019-04-16T19:30:28.584Z,40.50
2019-04-16T19:33:38.451Z,37.13
2019-04-16T19:36:46.679Z,49.00
2019-04-16T19:39:54.238Z,74.33
2019-04-16T19:43:03.417Z,70.47
2019-04-16T19:46:15.285Z,59.77
2019-04-16T19:49:23.738Z,60.27
2019-04-16T19:52:31.421Z,41.13
2019-04-16T19:55:38.927Z,34.97
2019-04-16T19:58:47.176Z,38.27
2019-04-16T20:02:00.239Z,24.20
2019-04-16T20:05:05.786Z,24.40
2019-04-16T20:08:13.463Z,29.17
2019-04-16T20:11:21.760Z,20.63
2019-04-16T20:14:35.114Z,19.33
2019-04-16T20:17:40.832Z,19.60
2019-04-16T20:20:50.183Z,15.77
2019-04-16T20:23:57.575Z,17.30
2019-04-16T20:27:06.469Z,21.23
2019-04-16T20:30:15.380Z,20.90
2019-04-16T20:33:23.152Z,31.37
2019-04-16T20:36:30.917Z,20.47
2019-04-16T20:39:40.730Z,16.10
2019-04-16T20:42:48.276Z,18.63
2019-04-16T20:45:57.059Z,18.03
2019-04-16T20:49:09.405Z,24.80
2019-04-16T20:52:14.824Z,20.50
2019-04-16T20:55:22.368Z,26.20
2019-04-16T20:58:32.327Z,33.13
2019-04-16T21:01:40.030Z,32.53
2019-04-16T21:04:47.663Z,24.10
2019-04-16T21:07:55.345Z,23.40
2019-04-16T21:11:07.391Z,34.87
2019-04-16T21:14:12.377Z,32.90
2019-04-16T21:17:19.932Z,33.77
2019-04-16T21:20:27.503Z,26.33
2019-04-16T21:23:35.528Z,19.83
2019-04-16T21:26:43.467Z,14.07
2019-04-16T21:29:50.998Z,14.83
2019-04-16T21:33:26.346Z,13.73
2019-04-16T21:36:41.008Z,10.43
2019-04-16T21:39:52.784Z,11.47
2019-04-16T21:43:00.238Z,12.53
2019-04-16T21:46:07.910Z,15.17
2019-04-16T21:49:15.392Z,21.73
2019-04-16T21:52:23.894Z,22.70
2019-04-16T21:55:32.816Z,21.90
2019-04-16T21:58:40.553Z,29.87
2019-04-16T22:01:48.104Z,58.93
2019-04-16T22:04:56.212Z,31.10
2019-04-16T22:08:03.934Z,45.00
2019-04-16T22:11:11.872Z,34.13
2019-04-16T22:14:22.293Z,32.17
2019-04-16T22:17:32.558Z,21.93
2019-04-16T22:20:39.936Z,22.40
2019-04-16T22:23:50.395Z,31.43
2019-04-16T22:26:57.105Z,35.50
2019-04-16T22:30:04.786Z,25.93
2019-04-16T22:33:12.406Z,13.20
2019-04-16T22:36:19.882Z,17.80
2019-04-16T22:39:51.261Z,21.80
2019-04-16T22:43:15.511Z,21.50
2019-04-16T22:46:27.010Z,23.27
2019-04-16T22:49:34.450Z,10.93
2019-04-16T22:52:45.137Z,13.23
2019-04-16T22:55:56.472Z,12.07
2019-04-16T22:59:00.354Z,13.30
2019-04-16T23:02:18.685Z,12.87
2019-04-16T23:05:27.731Z,12.23
2019-04-16T23:08:35.218Z,11.60
2019-04-16T23:11:42.730Z,16.17
2019-04-16T23:14:50.289Z,14.07
2019-04-16T23:17:58.125Z,14.80
2019-04-16T23:21:10.101Z,17.17
2019-04-16T23:24:15.912Z,13.90
2019-04-16T23:27:23.492Z,11.57
2019-04-16T23:30:30.982Z,13.50
2019-04-16T23:33:38.733Z,10.83
2019-04-16T23:36:48.708Z,12.73
2019-04-16T23:39:55.212Z,12.70
2019-04-16T23:43:25.514Z,13.17
2019-04-16T23:46:51.096Z,12.97
2019-04-16T23:50:24.684Z,12.73
2019-04-16T23:53:44.054Z,12.47
2019-04-16T23:56:55.307Z,13.87
